sensor_id;sensor_type;location;lat;lon;timestamp;P1;durP1;ratioP1;P2;durP2;ratioP2
8230;SDS011;4156;50.908;6.974;2023-03-14T00:00:20;4.20;;;1.83;;
8230;SDS011;4156;50.908;6.974;2023-03-14T00:02:45;4.30;;;1.50;;
8230;SDS011;4156;50.908;6.974;2023-03-14T00:05:16;4.40;;;1.70;;
8230;SDS011;4156;50.908;6.974;2023-03-14T00:07:41;3.60;;;1.80;;
8230;SDS011;4156;50.908;6.974;2023-03-14T00:10:08;3.77;;;1.90;;
8230;SDS011;4156;50.908;6.974;2023-03-14T00:12:35;4.00;;;1.70;;
8230;SDS011;4156;50.908;6.974;2023-03-14T00:15:01;6.50;;;2.17;;
8230;SDS011;4156;50.908;6.974;2023-03-14T00:17:28;5.03;;;1.80;;
8230;SDS011;4156;50.908;6.974;2023-03-14T00:19:54;5.80;;;2.33;;
8230;SDS011;4156;50.908;6.974;2023-03-14T00:22:20;4.13;;;1.70;;
8230;SDS011;4156;50.908;6.974;2023-03-14T00:24:46;3.87;;;1.53;;
8230;SDS011;4156;50.908;6.974;2023-03-14T00:27:12;5.10;;;1.73;;
8230;SDS011;4156;50.908;6.974;2023-03-14T00:29:38;3.47;;;1.63;;
8230;SDS011;4156;50.908;6.974;2023-03-14T00:32:03;5.10;;;1.93;;
8230;SDS011;4156;50.908;6.974;2023-03-14T00:34:30;6.47;;;1.80;;
8230;SDS011;4156;50.908;6.974;2023-03-14T00:36:56;3.27;;;1.77;;
8230;SDS011;4156;50.908;6.974;2023-03-14T00:39:22;5.50;;;1.60;;
8230;SDS011;4156;50.908;6.974;2023-03-14T00:41:47;3.03;;;2.00;;
8230;SDS011;4156;50.908;6.974;2023-03-14T00:44:13;5.80;;;1.80;;
8230;SDS011;4156;50.908;6.974;2023-03-14T00:46:38;3.70;;;1.53;;
8230;SDS011;4156;50.908;6.974;2023-03-14T00:49:04;2.73;;;1.30;;
8230;SDS011;4156;50.908;6.974;2023-03-14T00:51:29;4.10;;;1.70;;
8230;SDS011;4156;50.908;6.974;2023-03-14T00:53:55;3.53;;;1.43;;
8230;SDS011;4156;50.908;6.974;2023-03-14T00:56:20;4.37;;;1.60;;
8230;SDS011;4156;50.908;6.974;2023-03-14T00:58:46;2.73;;;1.50;;
8230;SDS011;4156;50.908;6.974;2023-03-14T01:01:13;4.33;;;1.80;;
8230;SDS011;4156;50.908;6.974;2023-03-14T01:03:40;3.60;;;1.60;;
8230;SDS011;4156;50.908;6.974;2023-03-14T01:06:07;2.63;;;1.37;;
8230;SDS011;4156;50.908;6.974;2023-03-14T01:08:37;4.93;;;1.80;;
8230;SDS011;4156;50.908;6.974;2023-03-14T01:11:09;2.57;;;1.40;;
8230;SDS011;4156;50.908;6.974;2023-03-14T01:13:40;3.40;;;1.50;;
8230;SDS011;4156;50.908;6.974;2023-03-14T01:16:06;3.77;;;1.70;;
8230;SDS011;4156;50.908;6.974;2023-03-14T01:18:33;2.90;;;1.70;;
8230;SDS011;4156;50.908;6.974;2023-03-14T01:21:00;3.90;;;1.70;;
8230;SDS011;4156;50.908;6.974;2023-03-14T01:23:27;4.93;;;2.23;;
8230;SDS011;4156;50.908;6.974;2023-03-14T01:25:53;3.83;;;1.87;;
8230;SDS011;4156;50.908;6.974;2023-03-14T01:28:18;4.40;;;1.60;;
8230;SDS011;4156;50.908;6.974;2023-03-14T01:30:44;3.43;;;1.63;;
8230;SDS011;4156;50.908;6.974;2023-03-14T01:33:09;5.00;;;1.80;;
8230;SDS011;4156;50.908;6.974;2023-03-14T01:35:36;5.77;;;2.00;;
8230;SDS011;4156;50.908;6.974;2023-03-14T01:38:01;4.67;;;1.60;;
8230;SDS011;4156;50.908;6.974;2023-03-14T01:40:27;4.17;;;1.73;;
8230;SDS011;4156;50.908;6.974;2023-03-14T01:42:56;5.00;;;1.80;;
8230;SDS011;4156;50.908;6.974;2023-03-14T01:48:53;3.40;;;1.50;;
8230;SDS011;4156;50.908;6.974;2023-03-14T01:51:36;3.63;;;1.60;;
8230;SDS011;4156;50.908;6.974;2023-03-14T01:56:59;2.10;;;1.20;;
8230;SDS011;4156;50.908;6.974;2023-03-14T01:59:33;1.87;;;1.17;;
8230;SDS011;4156;50.908;6.974;2023-03-14T02:02:02;2.87;;;1.30;;
8230;SDS011;4156;50.908;6.974;2023-03-14T02:04:32;4.00;;;1.30;;
8230;SDS011;4156;50.908;6.974;2023-03-14T02:07:03;4.37;;;1.40;;
8230;SDS011;4156;50.908;6.974;2023-03-14T02:09:40;2.33;;;0.97;;
8230;SDS011;4156;50.908;6.974;2023-03-14T02:12:10;3.07;;;1.30;;
8230;SDS011;4156;50.908;6.974;2023-03-14T02:14:38;1.97;;;1.20;;
8230;SDS011;4156;50.908;6.974;2023-03-14T02:17:05;2.13;;;1.20;;
8230;SDS011;4156;50.908;6.974;2023-03-14T02:19:37;2.40;;;1.20;;
8230;SDS011;4156;50.908;6.974;2023-03-14T02:22:14;1.37;;;0.90;;
8230;SDS011;4156;50.908;6.974;2023-03-14T02:24:44;1.90;;;1.07;;
8230;SDS011;4156;50.908;6.974;2023-03-14T02:27:31;3.70;;;1.27;;
8230;SDS011;4156;50.908;6.974;2023-03-14T02:30:02;2.00;;;1.20;;
8230;SDS011;4156;50.908;6.974;2023-03-14T02:32:31;3.20;;;1.43;;
8230;SDS011;4156;50.908;6.974;2023-03-14T02:35:00;2.60;;;1.40;;
8230;SDS011;4156;50.908;6.974;2023-03-14T02:37:33;2.30;;;1.30;;
8230;SDS011;4156;50.908;6.974;2023-03-14T02:40:03;2.03;;;0.97;;
8230;SDS011;4156;50.908;6.974;2023-03-14T02:42:30;2.93;;;1.30;;
8230;SDS011;4156;50.908;6.974;2023-03-14T02:47:33;1.53;;;1.30;;
8230;SDS011;4156;50.908;6.974;2023-03-14T02:50:04;2.43;;;1.00;;
8230;SDS011;4156;50.908;6.974;2023-03-14T02:52:34;2.70;;;1.00;;
8230;SDS011;4156;50.908;6.974;2023-03-14T02:55:00;3.43;;;1.40;;
8230;SDS011;4156;50.908;6.974;2023-03-14T02:57:25;3.40;;;1.10;;
8230;SDS011;4156;50.908;6.974;2023-03-14T02:59:51;2.63;;;0.97;;
8230;SDS011;4156;50.908;6.974;2023-03-14T03:02:17;3.27;;;1.30;;
8230;SDS011;4156;50.908;6.974;2023-03-14T03:04:42;4.43;;;1.20;;
8230;SDS011;4156;50.908;6.974;2023-03-14T03:07:08;1.70;;;1.20;;
8230;SDS011;4156;50.908;6.974;2023-03-14T03:09:33;2.17;;;1.27;;
8230;SDS011;4156;50.908;6.974;2023-03-14T03:11:59;3.67;;;1.50;;
8230;SDS011;4156;50.908;6.974;2023-03-14T03:14:24;3.63;;;1.23;;
8230;SDS011;4156;50.908;6.974;2023-03-14T03:16:50;2.03;;;1.10;;
8230;SDS011;4156;50.908;6.974;2023-03-14T03:19:15;2.43;;;1.40;;
8230;SDS011;4156;50.908;6.974;2023-03-14T03:21:42;3.80;;;1.60;;
8230;SDS011;4156;50.908;6.974;2023-03-14T03:24:08;2.53;;;1.40;;
8230;SDS011;4156;50.908;6.974;2023-03-14T03:26:34;1.80;;;1.33;;
8230;SDS011;4156;50.908;6.974;2023-03-14T03:29:01;3.13;;;1.43;;
8230;SDS011;4156;50.908;6.974;2023-03-14T03:31:26;4.07;;;1.47;;
8230;SDS011;4156;50.908;6.974;2023-03-14T03:33:52;3.50;;;1.63;;
8230;SDS011;4156;50.908;6.974;2023-03-14T03:36:21;4.00;;;1.57;;
8230;SDS011;4156;50.908;6.974;2023-03-14T03:38:48;4.93;;;1.57;;
8230;SDS011;4156;50.908;6.974;2023-03-14T03:41:14;2.43;;;1.53;;
8230;SDS011;4156;50.908;6.974;2023-03-14T03:43:39;2.63;;;1.90;;
8230;SDS011;4156;50.908;6.974;2023-03-14T03:46:05;4.70;;;1.57;;
8230;SDS011;4156;50.908;6.974;2023-03-14T03:48:31;3.90;;;1.87;;
8230;SDS011;4156;50.908;6.974;2023-03-14T03:50:57;6.20;;;1.97;;
8230;SDS011;4156;50.908;6.974;2023-03-14T03:53:23;6.73;;;1.60;;
8230;SDS011;4156;50.908;6.974;2023-03-14T03:55:49;4.23;;;2.17;;
8230;SDS011;4156;50.908;6.974;2023-03-14T03:58:15;2.90;;;1.60;;
8230;SDS011;4156;50.908;6.974;2023-03-14T04:00:40;7.20;;;2.00;;
8230;SDS011;4156;50.908;6.974;2023-03-14T04:03:06;5.07;;;1.90;;
8230;SDS011;4156;50.908;6.974;2023-03-14T04:05:32;5.53;;;1.70;;
8230;SDS011;4156;50.908;6.974;2023-03-14T04:07:57;2.87;;;1.80;;
8230;SDS011;4156;50.908;6.974;2023-03-14T04:10:23;6.40;;;1.80;;
8230;SDS011;4156;50.908;6.974;2023-03-14T04:12:48;5.00;;;1.73;;
8230;SDS011;4156;50.908;6.974;2023-03-14T04:15:14;4.87;;;2.00;;
8230;SDS011;4156;50.908;6.974;2023-03-14T04:17:39;4.00;;;1.60;;
8230;SDS011;4156;50.908;6.974;2023-03-14T04:20:05;3.17;;;1.67;;
8230;SDS011;4156;50.908;6.974;2023-03-14T04:22:35;3.33;;;1.70;;
8230;SDS011;4156;50.908;6.974;2023-03-14T04:25:01;4.43;;;1.97;;
8230;SDS011;4156;50.908;6.974;2023-03-14T04:27:28;3.40;;;1.57;;
8230;SDS011;4156;50.908;6.974;2023-03-14T04:29:54;5.43;;;1.37;;
8230;SDS011;4156;50.908;6.974;2023-03-14T04:32:19;3.43;;;1.33;;
8230;SDS011;4156;50.908;6.974;2023-03-14T04:34:45;3.97;;;1.70;;
8230;SDS011;4156;50.908;6.974;2023-03-14T04:37:11;3.90;;;1.47;;
8230;SDS011;4156;50.908;6.974;2023-03-14T04:39:36;4.40;;;1.53;;
8230;SDS011;4156;50.908;6.974;2023-03-14T04:42:02;6.00;;;1.80;;
8230;SDS011;4156;50.908;6.974;2023-03-14T04:44:27;3.83;;;1.50;;
8230;SDS011;4156;50.908;6.974;2023-03-14T04:46:53;7.20;;;1.90;;
8230;SDS011;4156;50.908;6.974;2023-03-14T04:49:19;2.83;;;1.27;;
8230;SDS011;4156;50.908;6.974;2023-03-14T04:51:44;8.43;;;1.70;;
8230;SDS011;4156;50.908;6.974;2023-03-14T04:54:10;4.23;;;1.70;;
8230;SDS011;4156;50.908;6.974;2023-03-14T04:56:35;3.80;;;2.10;;
8230;SDS011;4156;50.908;6.974;2023-03-14T04:59:02;4.03;;;1.80;;
8230;SDS011;4156;50.908;6.974;2023-03-14T05:01:28;2.13;;;1.57;;
8230;SDS011;4156;50.908;6.974;2023-03-14T05:03:53;2.77;;;1.50;;
8230;SDS011;4156;50.908;6.974;2023-03-14T05:06:19;2.47;;;1.43;;
8230;SDS011;4156;50.908;6.974;2023-03-14T05:08:44;2.37;;;1.33;;
8230;SDS011;4156;50.908;6.974;2023-03-14T05:11:10;3.37;;;2.07;;
8230;SDS011;4156;50.908;6.974;2023-03-14T05:13:37;2.03;;;1.20;;
8230;SDS011;4156;50.908;6.974;2023-03-14T05:16:04;2.80;;;1.30;;
8230;SDS011;4156;50.908;6.974;2023-03-14T05:18:34;2.40;;;1.53;;
8230;SDS011;4156;50.908;6.974;2023-03-14T05:21:00;2.43;;;1.20;;
8230;SDS011;4156;50.908;6.974;2023-03-14T05:23:25;2.27;;;1.10;;
8230;SDS011;4156;50.908;6.974;2023-03-14T05:25:52;1.97;;;1.03;;
8230;SDS011;4156;50.908;6.974;2023-03-14T05:28:18;1.80;;;1.00;;
8230;SDS011;4156;50.908;6.974;2023-03-14T05:30:44;1.47;;;1.17;;
8230;SDS011;4156;50.908;6.974;2023-03-14T05:33:10;2.07;;;1.00;;
8230;SDS011;4156;50.908;6.974;2023-03-14T05:35:36;1.30;;;1.20;;
8230;SDS011;4156;50.908;6.974;2023-03-14T05:38:01;1.83;;;1.30;;
8230;SDS011;4156;50.908;6.974;2023-03-14T05:40:27;3.13;;;1.27;;
8230;SDS011;4156;50.908;6.974;2023-03-14T05:42:52;1.50;;;1.00;;
8230;SDS011;4156;50.908;6.974;2023-03-14T05:45:18;1.17;;;1.07;;
8230;SDS011;4156;50.908;6.974;2023-03-14T05:47:43;1.43;;;1.20;;
8230;SDS011;4156;50.908;6.974;2023-03-14T05:50:09;1.40;;;1.30;;
8230;SDS011;4156;50.908;6.974;2023-03-14T05:52:35;1.53;;;1.13;;
8230;SDS011;4156;50.908;6.974;2023-03-14T05:55:01;0.80;;;0.80;;
8230;SDS011;4156;50.908;6.974;2023-03-14T05:57:27;1.00;;;1.00;;
8230;SDS011;4156;50.908;6.974;2023-03-14T05:59:52;2.87;;;0.90;;
8230;SDS011;4156;50.908;6.974;2023-03-14T06:02:18;0.83;;;0.83;;
8230;SDS011;4156;50.908;6.974;2023-03-14T06:04:43;0.80;;;0.80;;
8230;SDS011;4156;50.908;6.974;2023-03-14T06:07:09;1.17;;;1.07;;
8230;SDS011;4156;50.908;6.974;2023-03-14T06:09:34;0.90;;;0.90;;
8230;SDS011;4156;50.908;6.974;2023-03-14T06:12:00;0.90;;;0.90;;
8230;SDS011;4156;50.908;6.974;2023-03-14T06:14:25;2.00;;;1.20;;
8230;SDS011;4156;50.908;6.974;2023-03-14T06:16:51;1.57;;;1.00;;
8230;SDS011;4156;50.908;6.974;2023-03-14T06:19:17;1.33;;;0.90;;
8230;SDS011;4156;50.908;6.974;2023-03-14T06:21:43;0.87;;;0.70;;
8230;SDS011;4156;50.908;6.974;2023-03-14T06:24:09;1.07;;;0.80;;
8230;SDS011;4156;50.908;6.974;2023-03-14T06:26:34;4.07;;;1.43;;
8230;SDS011;4156;50.908;6.974;2023-03-14T06:29:00;1.13;;;1.03;;
8230;SDS011;4156;50.908;6.974;2023-03-14T06:31:31;1.17;;;0.90;;
8230;SDS011;4156;50.908;6.974;2023-03-14T06:33:57;1.03;;;0.93;;
8230;SDS011;4156;50.908;6.974;2023-03-14T06:36:23;3.07;;;1.10;;
8230;SDS011;4156;50.908;6.974;2023-03-14T06:38:48;1.97;;;0.73;;
8230;SDS011;4156;50.908;6.974;2023-03-14T06:41:14;0.80;;;0.80;;
8230;SDS011;4156;50.908;6.974;2023-03-14T06:43:39;0.80;;;0.80;;
8230;SDS011;4156;50.908;6.974;2023-03-14T06:46:05;2.40;;;1.00;;
8230;SDS011;4156;50.908;6.974;2023-03-14T06:48:30;1.60;;;0.90;;
8230;SDS011;4156;50.908;6.974;2023-03-14T06:50:56;1.57;;;0.80;;
8230;SDS011;4156;50.908;6.974;2023-03-14T06:53:22;1.37;;;1.03;;
8230;SDS011;4156;50.908;6.974;2023-03-14T06:55:47;1.77;;;1.13;;
8230;SDS011;4156;50.908;6.974;2023-03-14T06:58:13;1.10;;;1.00;;
8230;SDS011;4156;50.908;6.974;2023-03-14T07:00:38;1.17;;;1.00;;
8230;SDS011;4156;50.908;6.974;2023-03-14T07:03:04;0.80;;;0.80;;
8230;SDS011;4156;50.908;6.974;2023-03-14T07:05:29;0.83;;;0.80;;
8230;SDS011;4156;50.908;6.974;2023-03-14T07:07:55;2.17;;;0.90;;
8230;SDS011;4156;50.908;6.974;2023-03-14T07:10:21;0.80;;;0.80;;
8230;SDS011;4156;50.908;6.974;2023-03-14T07:12:47;0.70;;;0.70;;
8230;SDS011;4156;50.908;6.974;2023-03-14T07:15:12;0.70;;;0.70;;
8230;SDS011;4156;50.908;6.974;2023-03-14T07:17:38;0.70;;;0.70;;
8230;SDS011;4156;50.908;6.974;2023-03-14T07:20:03;0.70;;;0.70;;
8230;SDS011;4156;50.908;6.974;2023-03-14T07:22:30;0.80;;;0.80;;
8230;SDS011;4156;50.908;6.974;2023-03-14T07:24:55;0.90;;;0.90;;
8230;SDS011;4156;50.908;6.974;2023-03-14T07:27:21;0.80;;;0.80;;
8230;SDS011;4156;50.908;6.974;2023-03-14T07:29:47;0.73;;;0.73;;
8230;SDS011;4156;50.908;6.974;2023-03-14T07:32:12;0.70;;;0.70;;
8230;SDS011;4156;50.908;6.974;2023-03-14T07:34:40;0.70;;;0.70;;
8230;SDS011;4156;50.908;6.974;2023-03-14T07:37:06;0.90;;;0.83;;
8230;SDS011;4156;50.908;6.974;2023-03-14T07:39:31;0.70;;;0.70;;
8230;SDS011;4156;50.908;6.974;2023-03-14T07:41:57;0.60;;;0.60;;
8230;SDS011;4156;50.908;6.974;2023-03-14T07:44:22;0.73;;;0.73;;
8230;SDS011;4156;50.908;6.974;2023-03-14T07:46:48;0.67;;;0.67;;
8230;SDS011;4156;50.908;6.974;2023-03-14T07:49:13;0.90;;;0.90;;
8230;SDS011;4156;50.908;6.974;2023-03-14T07:51:39;0.80;;;0.80;;
8230;SDS011;4156;50.908;6.974;2023-03-14T07:54:04;0.83;;;0.63;;
8230;SDS011;4156;50.908;6.974;2023-03-14T07:56:30;0.90;;;0.90;;
8230;SDS011;4156;50.908;6.974;2023-03-14T07:58:56;0.60;;;0.60;;
8230;SDS011;4156;50.908;6.974;2023-03-14T08:01:22;1.13;;;0.70;;
8230;SDS011;4156;50.908;6.974;2023-03-14T08:03:47;0.70;;;0.70;;
8230;SDS011;4156;50.908;6.974;2023-03-14T08:06:13;0.80;;;0.80;;
8230;SDS011;4156;50.908;6.974;2023-03-14T08:08:39;0.60;;;0.60;;
8230;SDS011;4156;50.908;6.974;2023-03-14T08:11:05;0.60;;;0.60;;
8230;SDS011;4156;50.908;6.974;2023-03-14T08:13:33;0.67;;;0.67;;
8230;SDS011;4156;50.908;6.974;2023-03-14T08:15:59;0.60;;;0.60;;
8230;SDS011;4156;50.908;6.974;2023-03-14T08:18:25;0.60;;;0.60;;
8230;SDS011;4156;50.908;6.974;2023-03-14T08:20:50;0.80;;;0.80;;
8230;SDS011;4156;50.908;6.974;2023-03-14T08:23:16;1.03;;;0.77;;
8230;SDS011;4156;50.908;6.974;2023-03-14T08:25:41;0.60;;;0.60;;
8230;SDS011;4156;50.908;6.974;2023-03-14T08:28:08;0.67;;;0.67;;
8230;SDS011;4156;50.908;6.974;2023-03-14T08:30:33;0.60;;;0.60;;
8230;SDS011;4156;50.908;6.974;2023-03-14T08:32:59;0.70;;;0.70;;
8230;SDS011;4156;50.908;6.974;2023-03-14T08:35:25;0.60;;;0.60;;
8230;SDS011;4156;50.908;6.974;2023-03-14T08:37:51;0.60;;;0.60;;
8230;SDS011;4156;50.908;6.974;2023-03-14T08:40:17;0.67;;;0.67;;
8230;SDS011;4156;50.908;6.974;2023-03-14T08:42:43;0.90;;;0.90;;
8230;SDS011;4156;50.908;6.974;2023-03-14T08:45:13;0.93;;;0.80;;
8230;SDS011;4156;50.908;6.974;2023-03-14T08:47:41;0.70;;;0.70;;
8230;SDS011;4156;50.908;6.974;2023-03-14T08:50:07;0.70;;;0.70;;
8230;SDS011;4156;50.908;6.974;2023-03-14T08:52:34;0.80;;;0.80;;
8230;SDS011;4156;50.908;6.974;2023-03-14T08:54:59;0.60;;;0.60;;
8230;SDS011;4156;50.908;6.974;2023-03-14T08:57:25;0.60;;;0.60;;
8230;SDS011;4156;50.908;6.974;2023-03-14T08:59:54;0.93;;;0.87;;
8230;SDS011;4156;50.908;6.974;2023-03-14T09:02:21;1.97;;;0.90;;
8230;SDS011;4156;50.908;6.974;2023-03-14T09:04:49;0.70;;;0.70;;
8230;SDS011;4156;50.908;6.974;2023-03-14T09:07:15;0.60;;;0.60;;
8230;SDS011;4156;50.908;6.974;2023-03-14T09:09:40;0.70;;;0.70;;
8230;SDS011;4156;50.908;6.974;2023-03-14T09:12:06;0.83;;;0.83;;
8230;SDS011;4156;50.908;6.974;2023-03-14T09:14:32;0.80;;;0.80;;
8230;SDS011;4156;50.908;6.974;2023-03-14T09:16:57;1.20;;;1.10;;
8230;SDS011;4156;50.908;6.974;2023-03-14T09:19:23;2.27;;;1.30;;
8230;SDS011;4156;50.908;6.974;2023-03-14T09:21:48;1.20;;;1.10;;
8230;SDS011;4156;50.908;6.974;2023-03-14T09:24:14;2.00;;;1.23;;
8230;SDS011;4156;50.908;6.974;2023-03-14T09:26:40;1.80;;;1.03;;
8230;SDS011;4156;50.908;6.974;2023-03-14T09:29:06;2.87;;;1.10;;
8230;SDS011;4156;50.908;6.974;2023-03-14T09:31:31;1.67;;;0.80;;
8230;SDS011;4156;50.908;6.974;2023-03-14T09:33:57;1.00;;;0.97;;
8230;SDS011;4156;50.908;6.974;2023-03-14T09:36:22;1.30;;;1.00;;
8230;SDS011;4156;50.908;6.974;2023-03-14T09:38:48;1.10;;;1.00;;
8230;SDS011;4156;50.908;6.974;2023-03-14T09:41:28;0.80;;;0.80;;
8230;SDS011;4156;50.908;6.974;2023-03-14T09:44:03;1.23;;;0.93;;
8230;SDS011;4156;50.908;6.974;2023-03-14T09:46:41;0.87;;;0.73;;
8230;SDS011;4156;50.908;6.974;2023-03-14T09:49:19;0.90;;;0.80;;
8230;SDS011;4156;50.908;6.974;2023-03-14T09:51:49;1.10;;;1.00;;
8230;SDS011;4156;50.908;6.974;2023-03-14T09:54:26;0.77;;;0.77;;
8230;SDS011;4156;50.908;6.974;2023-03-14T09:56:56;1.37;;;1.00;;
8230;SDS011;4156;50.908;6.974;2023-03-14T09:59:21;1.10;;;1.00;;
8230;SDS011;4156;50.908;6.974;2023-03-14T10:01:47;1.07;;;1.07;;
8230;SDS011;4156;50.908;6.974;2023-03-14T10:04:14;1.00;;;0.90;;
8230;SDS011;4156;50.908;6.974;2023-03-14T10:06:44;1.00;;;1.00;;
8230;SDS011;4156;50.908;6.974;2023-03-14T10:09:17;1.33;;;1.20;;
8230;SDS011;4156;50.908;6.974;2023-03-14T10:11:56;1.20;;;1.10;;
8230;SDS011;4156;50.908;6.974;2023-03-14T10:14:47;1.00;;;1.00;;
8230;SDS011;4156;50.908;6.974;2023-03-14T10:17:50;1.20;;;1.10;;
8230;SDS011;4156;50.908;6.974;2023-03-14T10:20:35;1.30;;;1.20;;
8230;SDS011;4156;50.908;6.974;2023-03-14T10:23:29;1.30;;;1.20;;
8230;SDS011;4156;50.908;6.974;2023-03-14T10:26:17;2.80;;;1.40;;
8230;SDS011;4156;50.908;6.974;2023-03-14T10:29:32;1.67;;;1.50;;
8230;SDS011;4156;50.908;6.974;2023-03-14T10:32:18;1.93;;;1.33;;
8230;SDS011;4156;50.908;6.974;2023-03-14T10:35:20;1.50;;;1.40;;
8230;SDS011;4156;50.908;6.974;2023-03-14T10:38:34;1.57;;;1.40;;
8230;SDS011;4156;50.908;6.974;2023-03-14T10:41:14;2.63;;;1.70;;
8230;SDS011;4156;50.908;6.974;2023-03-14T10:54:19;1.57;;;1.23;;
8230;SDS011;4156;50.908;6.974;2023-03-14T10:57:19;1.77;;;1.67;;
8230;SDS011;4156;50.908;6.974;2023-03-14T10:59:53;1.30;;;1.20;;
8230;SDS011;4156;50.908;6.974;2023-03-14T11:09:07;2.23;;;1.40;;
8230;SDS011;4156;50.908;6.974;2023-03-14T11:11:53;1.93;;;1.50;;
8230;SDS011;4156;50.908;6.974;2023-03-14T11:14:33;1.40;;;1.30;;
8230;SDS011;4156;50.908;6.974;2023-03-14T11:21:02;1.30;;;1.20;;
8230;SDS011;4156;50.908;6.974;2023-03-14T11:26:59;1.30;;;1.20;;
8230;SDS011;4156;50.908;6.974;2023-03-14T11:29:55;1.80;;;1.40;;
8230;SDS011;4156;50.908;6.974;2023-03-14T11:36:01;3.60;;;1.60;;
8230;SDS011;4156;50.908;6.974;2023-03-14T11:38:29;1.07;;;1.07;;
8230;SDS011;4156;50.908;6.974;2023-03-14T11:43:54;2.90;;;1.60;;
8230;SDS011;4156;50.908;6.974;2023-03-14T11:46:29;1.60;;;1.50;;
8230;SDS011;4156;50.908;6.974;2023-03-14T11:49:26;0.90;;;0.90;;
8230;SDS011;4156;50.908;6.974;2023-03-14T11:55:07;1.10;;;1.00;;
8230;SDS011;4156;50.908;6.974;2023-03-14T11:57:35;2.10;;;0.80;;
8230;SDS011;4156;50.908;6.974;2023-03-14T12:00:13;1.30;;;0.87;;
8230;SDS011;4156;50.908;6.974;2023-03-14T12:02:57;2.33;;;1.60;;
8230;SDS011;4156;50.908;6.974;2023-03-14T12:13:14;0.90;;;0.90;;
8230;SDS011;4156;50.908;6.974;2023-03-14T12:15:54;4.10;;;1.37;;
8230;SDS011;4156;50.908;6.974;2023-03-14T12:18:31;1.23;;;1.13;;
8230;SDS011;4156;50.908;6.974;2023-03-14T12:21:09;1.17;;;1.10;;
8230;SDS011;4156;50.908;6.974;2023-03-14T12:23:43;1.37;;;1.20;;
8230;SDS011;4156;50.908;6.974;2023-03-14T12:28:49;2.10;;;1.20;;
8230;SDS011;4156;50.908;6.974;2023-03-14T12:44:45;3.53;;;1.50;;
8230;SDS011;4156;50.908;6.974;2023-03-14T12:49:46;2.47;;;1.30;;
8230;SDS011;4156;50.908;6.974;2023-03-14T12:52:37;2.63;;;1.20;;
8230;SDS011;4156;50.908;6.974;2023-03-14T12:58:08;2.40;;;1.40;;
8230;SDS011;4156;50.908;6.974;2023-03-14T13:00:40;1.60;;;1.33;;
8230;SDS011;4156;50.908;6.974;2023-03-14T13:03:18;2.87;;;1.30;;
8230;SDS011;4156;50.908;6.974;2023-03-14T13:06:01;1.93;;;1.50;;
8230;SDS011;4156;50.908;6.974;2023-03-14T13:08:42;1.93;;;1.33;;
8230;SDS011;4156;50.908;6.974;2023-03-14T13:11:15;2.27;;;1.47;;
8230;SDS011;4156;50.908;6.974;2023-03-14T13:13:49;1.37;;;1.27;;
8230;SDS011;4156;50.908;6.974;2023-03-14T13:16:23;4.33;;;1.43;;
8230;SDS011;4156;50.908;6.974;2023-03-14T13:18:51;2.53;;;1.40;;
8230;SDS011;4156;50.908;6.974;2023-03-14T13:21:44;3.47;;;1.50;;
8230;SDS011;4156;50.908;6.974;2023-03-14T13:24:21;4.67;;;1.40;;
8230;SDS011;4156;50.908;6.974;2023-03-14T13:26:48;3.90;;;1.60;;
8230;SDS011;4156;50.908;6.974;2023-03-14T13:29:17;2.70;;;1.40;;
8230;SDS011;4156;50.908;6.974;2023-03-14T13:31:53;2.73;;;1.93;;
8230;SDS011;4156;50.908;6.974;2023-03-14T13:34:26;2.00;;;1.20;;
8230;SDS011;4156;50.908;6.974;2023-03-14T13:36:53;1.70;;;1.30;;
8230;SDS011;4156;50.908;6.974;2023-03-14T13:39:22;1.93;;;1.33;;
8230;SDS011;4156;50.908;6.974;2023-03-14T13:51:30;3.20;;;1.40;;
8230;SDS011;4156;50.908;6.974;2023-03-14T13:54:01;3.03;;;1.40;;
8230;SDS011;4156;50.908;6.974;2023-03-14T13:56:29;3.53;;;1.30;;
8230;SDS011;4156;50.908;6.974;2023-03-14T13:58:57;4.37;;;1.40;;
8230;SDS011;4156;50.908;6.974;2023-03-14T14:01:27;3.03;;;1.80;;
8230;SDS011;4156;50.908;6.974;2023-03-14T14:03:58;3.60;;;1.50;;
8230;SDS011;4156;50.908;6.974;2023-03-14T14:09:19;2.07;;;1.30;;
8230;SDS011;4156;50.908;6.974;2023-03-14T14:14:29;3.40;;;1.70;;
8230;SDS011;4156;50.908;6.974;2023-03-14T14:17:18;6.73;;;3.37;;
8230;SDS011;4156;50.908;6.974;2023-03-14T14:19:54;6.03;;;1.93;;
8230;SDS011;4156;50.908;6.974;2023-03-14T14:22:22;7.33;;;2.23;;
8230;SDS011;4156;50.908;6.974;2023-03-14T14:24:52;7.27;;;2.13;;
8230;SDS011;4156;50.908;6.974;2023-03-14T14:30:00;8.10;;;2.37;;
8230;SDS011;4156;50.908;6.974;2023-03-14T14:32:34;6.00;;;2.10;;
8230;SDS011;4156;50.908;6.974;2023-03-14T14:35:04;7.53;;;2.10;;
8230;SDS011;4156;50.908;6.974;2023-03-14T14:37:32;12.40;;;2.63;;
8230;SDS011;4156;50.908;6.974;2023-03-14T14:40:09;7.90;;;2.50;;
8230;SDS011;4156;50.908;6.974;2023-03-14T14:42:42;7.57;;;2.20;;
8230;SDS011;4156;50.908;6.974;2023-03-14T14:45:24;6.27;;;2.20;;
8230;SDS011;4156;50.908;6.974;2023-03-14T14:47:54;11.07;;;3.53;;
8230;SDS011;4156;50.908;6.974;2023-03-14T14:50:28;7.17;;;2.17;;
8230;SDS011;4156;50.908;6.974;2023-03-14T14:52:57;11.50;;;2.43;;
8230;SDS011;4156;50.908;6.974;2023-03-14T14:55:31;7.50;;;2.43;;
8230;SDS011;4156;50.908;6.974;2023-03-14T14:58:11;6.53;;;2.00;;
8230;SDS011;4156;50.908;6.974;2023-03-14T15:01:05;11.00;;;3.43;;
8230;SDS011;4156;50.908;6.974;2023-03-14T15:03:36;9.67;;;3.00;;
8230;SDS011;4156;50.908;6.974;2023-03-14T15:06:03;11.70;;;2.77;;
8230;SDS011;4156;50.908;6.974;2023-03-14T15:08:30;6.47;;;2.00;;
8230;SDS011;4156;50.908;6.974;2023-03-14T15:10:56;6.07;;;2.30;;
8230;SDS011;4156;50.908;6.974;2023-03-14T15:13:24;8.17;;;2.20;;
8230;SDS011;4156;50.908;6.974;2023-03-14T15:15:50;8.90;;;3.37;;
8230;SDS011;4156;50.908;6.974;2023-03-14T15:18:23;5.30;;;2.17;;
8230;SDS011;4156;50.908;6.974;2023-03-14T15:20:50;7.43;;;2.30;;
8230;SDS011;4156;50.908;6.974;2023-03-14T15:23:17;5.23;;;2.77;;
8230;SDS011;4156;50.908;6.974;2023-03-14T15:25:44;9.13;;;3.13;;
8230;SDS011;4156;50.908;6.974;2023-03-14T15:28:23;9.20;;;2.33;;
8230;SDS011;4156;50.908;6.974;2023-03-14T15:30:51;6.23;;;2.37;;
8230;SDS011;4156;50.908;6.974;2023-03-14T15:33:18;10.53;;;2.50;;
8230;SDS011;4156;50.908;6.974;2023-03-14T15:35:45;11.13;;;3.03;;
8230;SDS011;4156;50.908;6.974;2023-03-14T15:38:13;8.83;;;2.53;;
8230;SDS011;4156;50.908;6.974;2023-03-14T15:40:41;13.30;;;2.50;;
8230;SDS011;4156;50.908;6.974;2023-03-14T15:43:07;13.33;;;2.70;;
8230;SDS011;4156;50.908;6.974;2023-03-14T15:45:34;9.97;;;2.63;;
8230;SDS011;4156;50.908;6.974;2023-03-14T15:48:00;7.53;;;2.63;;
8230;SDS011;4156;50.908;6.974;2023-03-14T15:50:26;12.20;;;2.70;;
8230;SDS011;4156;50.908;6.974;2023-03-14T15:52:52;9.37;;;3.37;;
8230;SDS011;4156;50.908;6.974;2023-03-14T15:55:17;6.93;;;2.53;;
8230;SDS011;4156;50.908;6.974;2023-03-14T15:57:43;6.53;;;2.60;;
8230;SDS011;4156;50.908;6.974;2023-03-14T16:00:14;12.73;;;2.80;;
8230;SDS011;4156;50.908;6.974;2023-03-14T16:02:42;8.23;;;3.93;;
8230;SDS011;4156;50.908;6.974;2023-03-14T16:05:10;12.40;;;2.80;;
8230;SDS011;4156;50.908;6.974;2023-03-14T16:07:36;10.77;;;2.43;;
8230;SDS011;4156;50.908;6.974;2023-03-14T16:10:02;10.07;;;2.53;;
8230;SDS011;4156;50.908;6.974;2023-03-14T16:12:29;14.50;;;2.70;;
8230;SDS011;4156;50.908;6.974;2023-03-14T16:14:56;6.60;;;2.23;;
8230;SDS011;4156;50.908;6.974;2023-03-14T16:17:21;10.77;;;3.23;;
8230;SDS011;4156;50.908;6.974;2023-03-14T16:19:47;9.33;;;3.50;;
8230;SDS011;4156;50.908;6.974;2023-03-14T16:22:12;11.43;;;2.50;;
8230;SDS011;4156;50.908;6.974;2023-03-14T16:24:38;12.10;;;3.50;;
8230;SDS011;4156;50.908;6.974;2023-03-14T16:27:03;9.63;;;2.83;;
8230;SDS011;4156;50.908;6.974;2023-03-14T16:29:29;9.77;;;2.60;;
8230;SDS011;4156;50.908;6.974;2023-03-14T16:31:55;7.87;;;2.40;;
8230;SDS011;4156;50.908;6.974;2023-03-14T16:34:21;8.17;;;2.40;;
8230;SDS011;4156;50.908;6.974;2023-03-14T16:36:46;8.37;;;2.63;;
8230;SDS011;4156;50.908;6.974;2023-03-14T16:39:12;11.27;;;3.00;;
8230;SDS011;4156;50.908;6.974;2023-03-14T16:41:38;11.43;;;2.40;;
8230;SDS011;4156;50.908;6.974;2023-03-14T16:44:03;7.60;;;2.60;;
8230;SDS011;4156;50.908;6.974;2023-03-14T16:46:29;7.67;;;3.10;;
8230;SDS011;4156;50.908;6.974;2023-03-14T16:48:54;11.33;;;3.00;;
8230;SDS011;4156;50.908;6.974;2023-03-14T16:51:20;9.03;;;3.23;;
8230;SDS011;4156;50.908;6.974;2023-03-14T16:53:46;8.67;;;2.93;;
8230;SDS011;4156;50.908;6.974;2023-03-14T16:56:12;10.43;;;2.50;;